MMMA/MAM METAR and TAF weather

Enter ICAO airport designator
Station Type Date Time Source
MMMA METAR 2019/08/24 17:41 UTC NOAA

MMMA 241741Z 15009G19KT 6SM BKN020TCU OVC200 34/25 A2988 RMK SLP116 57001 913 8/207 HZ


Station Type Date Time Source
MMMA Decoded METAR 2019/08/24 17:41 UTC NOAA

Station name not available
Aug 24, 2019 - 01:41 PM EDT / 2019.08.24 1741 UTC
Wind: from the SSE (150 degrees) at 10 MPH (9 KT) gusting to 22 MPH (19 KT):0
Visibility: 6 mile(s):0
Sky conditions: overcast
Weather: Towering cumulus clouds observed
Temperature: 93 F (34 C)
Heat index: 106.7 F (41.5 C):1
Dew Point: 77 F (25 C)
Relative Humidity: 59%
Pressure (altimeter): 29.88 in. Hg (1011 hPa)
Pressure tendency: 0.00 inches (0.1 hPa) lower than three hours ago
ob: MMMA 241741Z 15009G19KT 6SM BKN020TCU OVC200 34/25 A2988 RMK SLP116 57001 913 8/207 HZ
cycle: 17

Station Type Date Time Source
MMMA TAF 2019/08/24 18:33 UTC NOAA

TAF MMMA 241626Z 2418/2518 16018KT 6SM HZ BKN020 BKN250
TEMPO 2418/2422 6SM VC RA BKN020CB
FM242200 13018KT 6SM HZ BKN020 BKN250
BECMG 2506/2507 4SM HZ BKN015 PROB40 2510/2514 3SM -RA BR
FM251500 16015KT P6SM BKN020 BKN250

Example: see airport list